Time;durP1;ratioP1;P1;durP2;ratioP2;P2;SDS_P1;SDS_P2;PMS_P1;PMS_P2;Temp;Humidity;BMP_temperature;BMP_pressure;BME280_temperature;BME280_humidity;BME280_pressure;Samples;Min_cycle;Max_cycle;Signal;HPM_P1;HPM_P2
2021/12/10 00:01:49;;;;;;;10.40;5.68;;;;;;;6.89;66.54;99749.03;5064555;28;20107;-61
2021/12/10 00:04:20;;;;;;;9.90;4.72;;;;;;;6.92;66.27;99747.75;5068990;28;20154;-62
2021/12/10 00:06:51;;;;;;;16.70;4.97;;;;;;;6.92;65.78;99743.22;5064568;28;20053;-63
2021/12/10 00:09:24;;;;;;;10.10;4.72;;;;;;;6.95;66.19;99739.25;5066492;28;20049;-63
2021/12/10 00:11:54;;;;;;;13.77;5.40;;;;;;;6.95;66.03;99731.25;5065855;28;20053;-63
2021/12/10 00:14:27;;;;;;;9.90;4.25;;;;;;;6.94;66.04;99718.94;5065823;28;20045;-63
2021/12/10 00:16:58;;;;;;;9.57;4.70;;;;;;;6.92;66.20;99716.53;5058152;28;20140;-63
2021/12/10 00:19:32;;;;;;;10.10;4.40;;;;;;;6.92;65.98;99708.50;5067696;28;20076;-62
2021/12/10 00:22:05;;;;;;;13.43;5.63;;;;;;;6.93;65.51;99712.00;5071381;28;20049;-62
2021/12/10 00:24:33;;;;;;;11.07;4.68;;;;;;;6.92;66.07;99692.47;5067294;28;20044;-63
2021/12/10 00:27:04;;;;;;;9.27;4.53;;;;;;;6.93;66.00;99693.28;5068736;28;20048;-62
2021/12/10 00:29:33;;;;;;;8.95;4.78;;;;;;;6.93;66.07;99683.44;5068532;28;20045;-63
2021/12/10 00:32:07;;;;;;;8.43;4.40;;;;;;;6.90;66.00;99675.06;5070550;28;20045;-63
2021/12/10 00:34:39;;;;;;;11.10;4.90;;;;;;;6.87;66.13;99667.50;5069419;28;20041;-60
2021/12/10 00:37:12;;;;;;;8.57;4.10;;;;;;;6.85;65.86;99663.19;5067369;28;20065;-63
2021/12/10 00:39:44;;;;;;;10.90;4.35;;;;;;;6.86;65.86;99645.31;5076232;28;20067;-60
2021/12/10 00:42:15;;;;;;;11.38;5.13;;;;;;;6.85;65.92;99631.16;5069121;28;20057;-63
2021/12/10 00:44:45;;;;;;;9.02;4.03;;;;;;;6.83;65.88;99635.91;5065129;28;20049;-62
2021/12/10 00:47:15;;;;;;;7.70;4.82;;;;;;;6.82;65.96;99636.13;5069907;28;20083;-63
2021/12/10 00:49:43;;;;;;;6.32;3.75;;;;;;;6.81;65.93;99616.63;5064634;28;20048;-62
2021/12/10 00:52:13;;;;;;;6.18;3.42;;;;;;;6.79;66.07;99623.22;5066100;28;20356;-62
2021/12/10 00:54:42;;;;;;;11.07;3.88;;;;;;;6.81;65.94;99613.94;5072973;28;20049;-57
2021/12/10 00:57:11;;;;;;;9.82;3.65;;;;;;;6.79;65.97;99602.69;5068974;28;20103;-63
2021/12/10 00:59:39;;;;;;;9.82;3.75;;;;;;;6.77;66.27;99606.63;5065877;28;20057;-63
2021/12/10 01:02:12;;;;;;;13.48;3.78;;;;;;;6.77;65.77;99601.28;5076044;28;20056;-62
2021/12/10 01:04:45;;;;;;;10.05;3.92;;;;;;;6.76;65.64;99587.13;5073746;28;20464;-63
2021/12/10 01:07:17;;;;;;;8.75;3.35;;;;;;;6.77;66.33;99585.25;5064648;28;20066;-63
2021/12/10 01:09:49;;;;;;;8.35;3.60;;;;;;;6.74;65.71;99570.50;5073521;28;20056;-63
2021/12/10 01:12:22;;;;;;;11.15;3.70;;;;;;;6.74;66.10;99575.84;5069942;28;20053;-63
2021/12/10 01:15:07;;;;;;;7.90;3.67;;;;;;;6.73;65.74;99552.88;5063732;28;20071;-62
2021/12/10 01:23:51;;;;;;;6.43;3.10;;;;;;;6.74;65.90;99527.78;5005195;28;20050;-56
2021/12/10 01:26:40;;;;;;;8.25;2.88;;;;;;;6.68;65.90;99512.69;5005174;28;20050;-62
2021/12/10 01:29:12;;;;;;;7.47;2.97;;;;;;;6.72;65.58;99513.03;4997962;28;20144;-57
2021/12/10 01:31:41;;;;;;;7.18;2.97;;;;;;;6.72;65.79;99500.50;5007332;28;20049;-62
2021/12/10 01:34:11;;;;;;;7.30;2.80;;;;;;;6.70;65.47;99494.59;4998272;28;20050;-59
2021/12/10 01:36:41;;;;;;;11.23;4.43;;;;;;;6.67;65.68;99495.03;5005965;28;20072;-62
2021/12/10 01:39:20;;;;;;;8.20;3.30;;;;;;;6.67;65.90;99479.03;5008362;28;20073;-62
2021/12/10 01:41:55;;;;;;;13.10;3.50;;;;;;;6.70;65.59;99480.44;5004268;28;20058;-60
2021/12/10 01:44:29;;;;;;;7.30;3.17;;;;;;;6.69;65.65;99482.28;5003401;28;20086;-62
2021/12/10 01:47:00;;;;;;;8.77;3.28;;;;;;;6.66;65.66;99466.72;5004119;28;20096;-62
2021/12/10 01:49:28;;;;;;;9.10;3.38;;;;;;;6.67;65.44;99476.34;5001575;28;20074;-54
2021/12/10 01:51:58;;;;;;;9.95;3.40;;;;;;;6.66;65.44;99463.25;5006675;28;20054;-63
2021/12/10 01:54:29;;;;;;;8.15;3.83;;;;;;;6.67;65.17;99464.88;4999660;28;20047;-62
2021/12/10 01:56:59;;;;;;;10.90;3.35;;;;;;;6.69;65.50;99463.59;5042919;28;20053;-63
2021/12/10 01:59:29;;;;;;;7.35;2.95;;;;;;;6.72;65.40;99462.31;5061963;28;20045;-62
2021/12/10 02:02:01;;;;;;;7.57;2.72;;;;;;;6.61;65.66;99444.44;5067937;28;20070;-61
2021/12/10 02:04:33;;;;;;;6.88;3.30;;;;;;;6.69;65.29;99454.78;5070838;28;20040;-63
2021/12/10 02:07:04;;;;;;;9.18;3.90;;;;;;;6.68;65.27;99443.28;5065541;28;20052;-61
2021/12/10 02:09:32;;;;;;;7.57;3.13;;;;;;;6.69;65.86;99444.09;5070009;28;20041;-62
2021/12/10 02:12:00;;;;;;;7.38;2.88;;;;;;;6.70;65.08;99446.53;5067239;28;20049;-63
2021/12/10 02:14:28;;;;;;;8.73;2.60;;;;;;;6.68;65.46;99437.13;5067563;28;20041;-63
2021/12/10 02:16:58;;;;;;;6.13;3.20;;;;;;;6.58;65.48;99415.53;5073621;28;20057;-63
2021/12/10 02:19:28;;;;;;;12.10;3.38;;;;;;;6.63;65.22;99418.31;5067110;28;20065;-61
2021/12/10 02:21:59;;;;;;;5.30;2.50;;;;;;;6.68;65.22;99410.44;5067072;28;20048;-63
2021/12/10 02:24:27;;;;;;;5.05;3.17;;;;;;;6.67;65.14;99417.63;5070321;28;20091;-63
2021/12/10 02:26:58;;;;;;;8.77;3.10;;;;;;;6.66;65.17;99415.19;5063572;28;20049;-62
2021/12/10 02:29:29;;;;;;;7.68;2.20;;;;;;;6.65;65.38;99403.69;5072052;28;20076;-62
2021/12/10 02:31:57;;;;;;;7.85;2.85;;;;;;;6.62;65.17;99384.66;5068135;28;20071;-59
2021/12/10 02:34:27;;;;;;;6.88;2.20;;;;;;;6.63;65.41;99381.75;5073913;28;20051;-59
2021/12/10 02:36:55;;;;;;;5.22;3.08;;;;;;;6.59;65.44;99379.78;5072933;28;20049;-63
2021/12/10 02:39:27;;;;;;;6.22;2.88;;;;;;;6.60;65.71;99368.88;5074294;28;20057;-63
2021/12/10 02:41:56;;;;;;;7.88;2.58;;;;;;;6.58;65.87;99370.16;5077008;28;20045;-63
2021/12/10 02:44:27;;;;;;;6.13;2.53;;;;;;;6.58;65.46;99367.50;5078248;28;20071;-63
2021/12/10 02:46:56;;;;;;;6.88;2.40;;;;;;;6.49;65.31;99343.81;5063050;28;20186;-62
2021/12/10 02:49:24;;;;;;;5.88;2.22;;;;;;;6.55;65.21;99355.41;5069976;28;20048;-62
2021/12/10 02:51:54;;;;;;;11.13;3.15;;;;;;;6.54;65.32;99353.78;5074491;28;20539;-63
2021/12/10 02:54:32;;;;;;;8.05;2.53;;;;;;;6.53;65.50;99342.31;5069751;28;20049;-63
2021/12/10 02:57:06;;;;;;;7.90;2.13;;;;;;;6.53;65.43;99344.16;5061680;28;20045;-63
2021/12/10 02:59:34;;;;;;;6.03;1.83;;;;;;;6.54;65.25;99337.78;5056161;28;20048;-62
2021/12/10 03:02:04;;;;;;;7.70;2.30;;;;;;;6.51;65.38;99335.56;5066149;28;20044;-62
2021/12/10 03:04:33;;;;;;;4.38;2.25;;;;;;;6.53;65.37;99333.47;5070916;28;20052;-61
2021/12/10 03:07:07;;;;;;;5.45;2.42;;;;;;;6.50;65.31;99326.75;5071044;28;20133;-63
2021/12/10 03:09:35;;;;;;;4.72;2.00;;;;;;;6.50;65.42;99325.94;5064841;28;20467;-63
2021/12/10 03:12:06;;;;;;;8.70;2.03;;;;;;;6.39;65.41;99308.06;5063512;28;20103;-62
2021/12/10 03:14:36;;;;;;;8.68;2.70;;;;;;;6.48;65.35;99307.50;5067660;28;20053;-61
2021/12/10 03:17:08;;;;;;;7.80;2.15;;;;;;;6.50;65.39;99302.75;5068945;28;20088;-63
2021/12/10 03:19:36;;;;;;;7.60;2.00;;;;;;;6.50;65.12;99305.41;5055102;28;20053;-62
2021/12/10 03:22:05;;;;;;;5.50;1.90;;;;;;;6.51;65.46;99308.88;5066713;28;20071;-62
2021/12/10 03:24:34;;;;;;;6.70;1.98;;;;;;;6.50;65.42;99302.75;5071228;28;20087;-62
2021/12/10 03:27:04;;;;;;;4.82;2.10;;;;;;;6.50;65.48;99300.06;5061624;28;20110;-63
2021/12/10 03:29:36;;;;;;;4.05;1.80;;;;;;;6.50;65.09;99297.41;5067208;28;20045;-62
2021/12/10 03:32:08;;;;;;;5.53;1.83;;;;;;;6.49;65.31;99301.13;5054629;28;20082;-63
2021/12/10 03:34:37;;;;;;;3.65;1.90;;;;;;;6.48;65.46;99296.81;5075742;28;20036;-60
2021/12/10 03:37:06;;;;;;;6.78;2.28;;;;;;;6.48;65.14;99294.16;5072857;28;20052;-63
2021/12/10 03:39:35;;;;;;;5.20;2.00;;;;;;;6.47;65.17;99281.84;5071332;28;20459;-62
2021/12/10 03:42:05;;;;;;;4.50;1.83;;;;;;;6.47;65.42;99275.69;5078195;28;20051;-63
2021/12/10 03:44:35;;;;;;;4.70;2.20;;;;;;;6.44;65.36;99268.97;5070843;28;20040;-58
2021/12/10 03:47:06;;;;;;;5.47;1.95;;;;;;;6.46;65.09;99263.41;5062371;28;20413;-62
2021/12/10 03:49:35;;;;;;;6.45;2.15;;;;;;;6.46;65.43;99266.88;5062037;28;20048;-61
2021/12/10 03:52:05;;;;;;;4.18;1.70;;;;;;;6.48;65.34;99266.66;5070930;28;20048;-63
2021/12/10 03:54:33;;;;;;;9.52;2.45;;;;;;;6.48;65.16;99254.13;5062044;28;20048;-63
2021/12/10 03:57:01;;;;;;;6.18;1.67;;;;;;;6.49;65.45;99254.94;5066186;28;20041;-63
2021/12/10 03:59:30;;;;;;;6.20;2.42;;;;;;;6.46;65.29;99248.22;5068513;28;20068;-62
2021/12/10 04:02:00;;;;;;;3.30;1.63;;;;;;;6.46;65.30;99245.53;5074899;28;20185;-63
2021/12/10 04:04:30;;;;;;;6.32;1.77;;;;;;;6.39;65.83;99228.84;5069272;28;20048;-63
2021/12/10 04:07:00;;;;;;;5.57;1.55;;;;;;;6.50;65.08;99232.53;5069171;28;20062;-62
2021/12/10 04:09:31;;;;;;;6.95;1.90;;;;;;;6.51;65.31;99226.16;5065994;28;20044;-58
2021/12/10 04:11:59;;;;;;;4.63;1.58;;;;;;;6.51;65.33;99224.28;5064561;28;20045;-63
2021/12/10 04:14:31;;;;;;;5.45;1.85;;;;;;;6.52;65.43;99214.44;5069805;28;20045;-63
2021/12/10 04:17:00;;;;;;;3.85;2.53;;;;;;;6.50;65.54;99206.66;5069779;28;20127;-62
2021/12/10 04:19:30;;;;;;;6.18;2.58;;;;;;;6.50;65.66;99195.19;5073765;28;20048;-61
2021/12/10 04:21:59;;;;;;;4.90;1.77;;;;;;;6.50;65.37;99197.84;5074848;28;20048;-62
2021/12/10 04:24:30;;;;;;;4.85;1.67;;;;;;;6.50;65.48;99198.66;5068548;28;20052;-62
2021/12/10 04:27:01;;;;;;;3.60;1.75;;;;;;;6.46;65.52;99191.34;5073829;28;20044;-63
2021/12/10 04:29:29;;;;;;;6.35;1.83;;;;;;;6.45;65.85;99189.72;5069191;28;20045;-61
2021/12/10 04:31:58;;;;;;;4.97;1.95;;;;;;;6.45;65.74;99174.53;5062240;28;20049;-63
2021/12/10 04:34:29;;;;;;;5.72;1.65;;;;;;;6.46;65.57;99167.34;5066281;28;20056;-63
2021/12/10 04:36:59;;;;;;;7.47;1.92;;;;;;;6.46;65.44;99162.00;5072651;28;20154;-62
2021/12/10 04:39:29;;;;;;;7.43;2.38;;;;;;;6.44;65.64;99156.91;5070746;28;20081;-61
2021/12/10 04:41:57;;;;;;;4.32;2.28;;;;;;;6.34;65.75;99134.53;5075220;28;20071;-63
2021/12/10 04:44:25;;;;;;;5.03;1.80;;;;;;;6.47;65.49;99139.59;5069162;28;20112;-62
2021/12/10 04:46:53;;;;;;;5.22;1.88;;;;;;;6.46;65.82;99129.97;5067495;28;20118;-62
2021/12/10 04:49:21;;;;;;;5.22;1.75;;;;;;;6.43;65.75;99131.25;5069189;28;20060;-63
2021/12/10 04:51:54;;;;;;;5.38;2.20;;;;;;;6.44;65.26;99132.06;5068619;28;20060;-62
2021/12/10 04:54:24;;;;;;;3.40;1.50;;;;;;;6.42;65.53;99118.97;5076619;28;20064;-61
2021/12/10 04:56:57;;;;;;;3.80;1.38;;;;;;;6.40;65.56;99115.72;5059719;28;20067;-63
2021/12/10 04:59:27;;;;;;;7.13;1.70;;;;;;;6.41;65.69;99103.19;5075920;28;20057;-63
2021/12/10 05:01:57;;;;;;;5.03;1.75;;;;;;;6.41;65.59;99108.53;5070116;28;20083;-63
2021/12/10 05:04:26;;;;;;;7.40;1.55;;;;;;;6.42;65.56;99100.28;5073269;28;20053;-63
2021/12/10 05:06:56;;;;;;;6.22;1.70;;;;;;;6.41;65.69;99097.88;5066946;28;20095;-63
2021/12/10 05:09:24;;;;;;;7.97;1.77;;;;;;;6.30;65.64;99086.19;5068817;28;20087;-62
2021/12/10 05:11:53;;;;;;;4.10;1.60;;;;;;;6.40;65.62;99086.38;5066366;28;20069;-63
2021/12/10 05:14:21;;;;;;;4.43;1.55;;;;;;;6.33;65.57;99074.22;5076235;28;20051;-62
2021/12/10 05:16:52;;;;;;;6.90;1.70;;;;;;;6.32;65.80;99075.28;5069820;28;20045;-61
2021/12/10 05:19:26;;;;;;;5.72;1.38;;;;;;;6.39;65.56;99083.94;5074782;28;20116;-62
2021/12/10 05:21:56;;;;;;;7.93;2.28;;;;;;;6.40;65.21;99078.38;5059672;28;20045;-63
2021/12/10 05:24:23;;;;;;;5.15;1.38;;;;;;;6.42;65.53;99080.81;5073532;28;20064;-63
2021/12/10 05:26:54;;;;;;;5.00;1.60;;;;;;;6.42;65.61;99070.13;5065760;28;20502;-63
2021/12/10 05:29:22;;;;;;;5.47;1.63;;;;;;;6.40;65.53;99058.88;5069105;28;20443;-59
2021/12/10 05:31:51;;;;;;;5.07;1.65;;;;;;;6.39;65.52;99062.59;5070831;28;20052;-63
2021/12/10 05:34:19;;;;;;;6.60;1.45;;;;;;;6.38;65.63;99060.97;5074935;28;20048;-55
2021/12/10 05:36:47;;;;;;;6.95;2.20;;;;;;;6.38;65.46;99061.78;5071564;28;20064;-52
2021/12/10 05:39:22;;;;;;;5.20;1.95;;;;;;;6.41;65.37;99055.97;5062636;28;20051;-63
2021/12/10 05:41:50;;;;;;;8.20;2.45;;;;;;;6.39;65.16;99063.41;5073721;28;20048;-63
2021/12/10 05:44:19;;;;;;;7.00;1.58;;;;;;;6.39;65.47;99063.41;5068219;28;20075;-63
2021/12/10 05:46:47;;;;;;;4.13;2.03;;;;;;;6.41;65.43;99049.84;5067968;28;20223;-62
2021/12/10 05:49:16;;;;;;;4.68;1.70;;;;;;;6.42;65.28;99046.13;5066253;28;20045;-63
2021/12/10 05:51:45;;;;;;;4.10;1.63;;;;;;;6.41;65.49;99050.66;5066060;28;20041;-62
2021/12/10 05:54:13;;;;;;;2.80;1.85;;;;;;;6.42;65.49;99046.13;5073683;28;20135;-63
2021/12/10 05:56:42;;;;;;;3.88;1.65;;;;;;;6.43;65.28;99045.88;5063432;28;20072;-63
2021/12/10 05:59:10;;;;;;;4.07;1.42;;;;;;;6.41;65.63;99041.84;5068779;28;20079;-63
2021/12/10 06:01:38;;;;;;;5.45;1.77;;;;;;;6.43;65.19;99042.41;5063879;28;20052;-63
2021/12/10 06:04:06;;;;;;;5.07;1.75;;;;;;;6.51;65.10;99039.34;5072507;28;20048;-60
2021/12/10 06:06:34;;;;;;;7.82;2.35;;;;;;;6.64;64.78;99030.22;5072761;28;20098;-63
2021/12/10 06:09:06;;;;;;;5.38;1.88;;;;;;;6.79;64.03;99033.16;5069294;28;20045;-63
2021/12/10 06:11:34;;;;;;;3.40;1.80;;;;;;;6.91;63.44;99033.09;5069951;28;20127;-62
2021/12/10 06:14:04;;;;;;;8.23;1.88;;;;;;;6.98;63.37;99021.16;5073154;28;20052;-63
2021/12/10 06:16:32;;;;;;;7.80;2.03;;;;;;;7.07;63.20;99017.03;5066725;28;20084;-62
2021/12/10 06:19:00;;;;;;;8.02;1.90;;;;;;;7.33;62.62;99028.09;5065549;28;20049;-63
2021/12/10 06:21:29;;;;;;;3.70;2.00;;;;;;;7.46;62.34;99033.09;5068509;28;20048;-60
2021/12/10 06:23:57;;;;;;;4.53;1.80;;;;;;;7.56;61.53;99025.22;5075181;28;20083;-63
2021/12/10 06:26:24;;;;;;;6.05;1.80;;;;;;;7.69;61.16;99018.72;5073186;28;20478;-63
2021/12/10 06:28:52;;;;;;;3.83;1.58;;;;;;;7.77;61.25;99020.94;5073388;28;20382;-63
2021/12/10 06:31:24;;;;;;;8.25;2.03;;;;;;;7.78;60.50;99007.34;5067722;28;20347;-64
2021/12/10 06:33:53;;;;;;;5.50;1.70;;;;;;;7.93;60.81;99022.75;5069246;28;20117;-68
2021/12/10 06:36:22;;;;;;;6.03;2.00;;;;;;;8.00;60.19;99014.53;5069714;28;20048;-62
2021/12/10 06:38:50;;;;;;;6.30;1.70;;;;;;;7.94;60.55;99012.88;5068183;28;20280;-63
2021/12/10 06:41:19;;;;;;;3.67;1.58;;;;;;;7.92;60.97;99015.78;5071347;28;20078;-62
2021/12/10 06:43:47;;;;;;;4.65;1.35;;;;;;;7.71;60.73;99004.03;5076241;28;20049;-62
2021/12/10 06:46:16;;;;;;;4.40;1.80;;;;;;;7.65;60.86;99015.72;5062877;28;20045;-62
2021/12/10 06:48:46;;;;;;;6.30;1.77;;;;;;;7.62;61.95;99018.88;4353474;28;10000765;-61
2021/12/10 06:51:17;;;;;;;8.45;1.85;;;;;;;7.71;61.22;99016.59;5057233;28;20053;-60
2021/12/10 06:53:45;;;;;;;4.55;1.60;;;;;;;7.80;60.92;99015.91;5075994;28;20066;-61
2021/12/10 06:56:15;;;;;;;4.95;1.67;;;;;;;7.86;60.94;99021.31;5064650;28;20103;-60
2021/12/10 06:58:44;;;;;;;5.32;1.75;;;;;;;7.95;60.87;99019.84;5046659;28;20097;-62
2021/12/10 07:01:16;;;;;;;7.47;2.05;;;;;;;7.87;60.27;99007.72;5048694;28;20049;-57
2021/12/10 07:03:46;;;;;;;5.05;1.50;;;;;;;7.83;60.42;99019.97;5065831;28;20049;-59
2021/12/10 07:06:14;;;;;;;6.60;1.88;;;;;;;7.73;60.62;99025.19;5066337;28;20082;-63
2021/12/10 07:08:44;;;;;;;6.07;1.33;;;;;;;7.60;61.19;99031.69;5061598;28;20049;-73
2021/12/10 07:11:15;;;;;;;6.60;2.13;;;;;;;7.45;61.72;99032.28;5069669;28;20101;-59
2021/12/10 07:13:45;;;;;;;8.05;1.92;;;;;;;7.27;62.53;99032.56;5062875;28;20072;-59
2021/12/10 07:16:13;;;;;;;6.22;1.65;;;;;;;7.19;63.03;99032.97;5064705;28;20055;-59
2021/12/10 07:18:42;;;;;;;5.72;1.67;;;;;;;7.16;63.38;99030.78;5073110;28;20186;-59
2021/12/10 07:21:12;;;;;;;7.65;2.20;;;;;;;7.13;63.04;99029.41;5062299;28;20052;-57
2021/12/10 07:23:42;;;;;;;14.02;3.63;;;;;;;7.08;63.54;99031.19;5063751;28;20049;-59
2021/12/10 07:26:10;;;;;;;3.60;1.25;;;;;;;6.99;63.73;99020.09;5062667;28;20048;-59
2021/12/10 07:28:38;;;;;;;4.53;1.60;;;;;;;6.96;63.82;99027.81;5063631;28;20048;-59
2021/12/10 07:31:09;;;;;;;8.20;1.80;;;;;;;6.94;63.65;99012.03;5062130;28;20045;-59
2021/12/10 07:33:37;;;;;;;7.82;1.75;;;;;;;7.03;63.86;99018.56;5063345;28;20052;-59
2021/12/10 07:36:07;;;;;;;6.03;1.42;;;;;;;7.19;63.29;99015.06;5072342;28;20049;-58
2021/12/10 07:38:36;;;;;;;10.30;1.73;;;;;;;7.32;62.67;99021.13;5062807;28;20498;-60
2021/12/10 07:41:07;;;;;;;4.70;1.23;;;;;;;7.44;62.60;99021.84;5063726;28;20045;-57
2021/12/10 07:43:35;;;;;;;4.57;1.50;;;;;;;7.60;61.97;99018.31;5064754;28;20053;-60
2021/12/10 07:46:05;;;;;;;9.00;1.70;;;;;;;7.76;61.47;99019.34;5061709;28;20041;-61
2021/12/10 07:48:35;;;;;;;7.45;1.88;;;;;;;7.88;61.22;99013.88;5057778;28;20068;-60
2021/12/10 07:51:06;;;;;;;4.63;1.85;;;;;;;7.97;61.49;99012.38;5064866;28;20059;-60
2021/12/10 07:53:37;;;;;;;3.50;1.50;;;;;;;8.14;60.57;99021.13;5062386;28;20064;-60
2021/12/10 07:56:07;;;;;;;4.63;1.38;;;;;;;8.13;61.08;99012.28;5054539;28;20050;-60
2021/12/10 07:58:37;;;;;;;3.53;1.55;;;;;;;8.07;60.97;99015.16;5073761;28;20068;-59
2021/12/10 08:01:08;;;;;;;5.25;1.45;;;;;;;7.94;61.71;99013.69;5072665;28;20142;-49
2021/12/10 08:03:37;;;;;;;9.32;1.67;;;;;;;7.70;62.08;98996.25;5067914;28;20049;-60
2021/12/10 08:06:05;;;;;;;5.30;2.22;;;;;;;7.62;62.30;99020.75;5071351;28;20056;-60
2021/12/10 08:08:33;;;;;;;5.13;1.73;;;;;;;7.54;62.68;99016.66;5074469;28;20073;-57
2021/12/10 08:11:03;;;;;;;5.60;1.58;;;;;;;7.40;62.98;99012.69;5049826;28;20099;-57
2021/12/10 08:13:31;;;;;;;5.78;1.95;;;;;;;7.38;63.08;99026.31;5058394;28;20038;-58
2021/12/10 08:15:59;;;;;;;7.43;1.85;;;;;;;7.32;63.35;99027.28;5068132;28;20099;-60
2021/12/10 08:18:27;;;;;;;3.00;1.58;;;;;;;7.27;63.42;99021.06;5077859;28;20064;-59
2021/12/10 08:20:55;;;;;;;6.93;2.22;;;;;;;7.42;63.40;99024.75;5067236;28;20047;-59
2021/12/10 08:23:23;;;;;;;4.53;1.73;;;;;;;7.50;62.89;99020.88;5070938;28;20064;-60
2021/12/10 08:25:52;;;;;;;5.43;1.92;;;;;;;7.61;62.58;99027.16;5064202;28;20053;-60
2021/12/10 08:28:25;;;;;;;6.80;1.58;;;;;;;7.76;61.58;99022.81;5062757;28;20460;-61
2021/12/10 08:30:54;;;;;;;5.07;2.10;;;;;;;7.81;61.41;99017.53;5054201;28;20164;-61
2021/12/10 08:33:23;;;;;;;7.57;1.92;;;;;;;7.94;61.72;99019.03;5069217;28;20134;-61
2021/12/10 08:35:58;;;;;;;4.03;1.40;;;;;;;8.03;61.09;99017.53;5063600;28;20048;-60
2021/12/10 08:38:26;;;;;;;5.65;1.30;;;;;;;8.18;61.07;99026.78;5060235;28;20053;-61
2021/12/10 08:40:58;;;;;;;4.07;1.38;;;;;;;8.18;60.55;99021.44;5068219;28;20052;-61
2021/12/10 08:43:29;;;;;;;5.65;2.15;;;;;;;8.24;59.61;99018.56;5065645;28;20418;-61
2021/12/10 08:45:58;;;;;;;5.10;1.50;;;;;;;8.38;59.97;99027.84;5067944;28;20053;-61
2021/12/10 08:48:28;;;;;;;4.35;1.35;;;;;;;8.48;60.00;99029.81;5067443;28;20049;-59
2021/12/10 08:50:58;;;;;;;9.95;2.22;;;;;;;8.54;58.89;99025.31;5066916;28;20053;-62
2021/12/10 08:53:26;;;;;;;4.72;1.33;;;;;;;8.57;59.18;99022.94;5065835;28;20057;-52
2021/12/10 08:55:56;;;;;;;4.13;1.88;;;;;;;8.53;58.90;99024.50;5069512;28;20110;-56
2021/12/10 08:58:24;;;;;;;6.97;1.55;;;;;;;8.40;60.10;99024.91;5059302;28;20044;-60
2021/12/10 09:00:57;;;;;;;7.30;1.92;;;;;;;8.23;60.03;99026.84;5070672;28;20052;-61
2021/12/10 09:03:41;;;;;;;4.35;1.50;;;;;;;7.99;61.04;99032.47;5047366;28;20084;-61
2021/12/10 09:06:10;;;;;;;7.53;1.88;;;;;;;7.83;61.79;99018.09;5058345;28;20049;-61
2021/12/10 09:08:38;;;;;;;4.72;1.95;;;;;;;7.66;61.99;99013.84;5067559;28;20048;-61
2021/12/10 09:11:09;;;;;;;4.65;1.42;;;;;;;7.64;62.14;99032.81;5067504;28;20056;-61
2021/12/10 09:13:37;;;;;;;8.27;2.53;;;;;;;7.57;62.33;99034.88;5062665;28;20113;-61
2021/12/10 09:16:11;;;;;;;5.63;2.13;;;;;;;7.51;62.53;99030.50;5064080;28;20139;-62
2021/12/10 09:18:40;;;;;;;6.50;1.80;;;;;;;7.44;63.16;99037.88;5071793;28;20160;-61
2021/12/10 09:21:10;;;;;;;8.38;1.80;;;;;;;7.38;63.77;99039.66;5063245;28;20060;-61
2021/12/10 09:23:39;;;;;;;4.40;1.40;;;;;;;7.34;63.29;99033.19;5072503;28;20064;-61
2021/12/10 09:26:09;;;;;;;8.00;1.70;;;;;;;7.34;63.39;99033.19;5065505;28;20076;-60
2021/12/10 09:28:40;;;;;;;7.78;1.90;;;;;;;7.44;63.11;99032.53;5064433;28;20049;-61
2021/12/10 09:31:13;;;;;;;7.53;1.73;;;;;;;7.59;62.44;99034.63;5061207;28;20140;-61
2021/12/10 09:33:42;;;;;;;3.38;1.73;;;;;;;7.77;61.50;99035.13;5063928;28;20068;-59
2021/12/10 09:36:12;;;;;;;6.88;2.25;;;;;;;7.91;61.90;99032.91;5056138;28;20041;-61
2021/12/10 09:38:40;;;;;;;5.22;1.60;;;;;;;8.05;61.36;99044.03;5064951;28;20041;-60
2021/12/10 09:41:11;;;;;;;5.72;1.90;;;;;;;8.16;60.38;99041.22;5063978;28;20049;-60
2021/12/10 09:43:40;;;;;;;3.38;1.60;;;;;;;8.23;60.27;99034.88;5063718;28;20126;-61
2021/12/10 09:46:10;;;;;;;4.13;1.65;;;;;;;8.41;60.13;99050.63;5060490;28;20045;-59
2021/12/10 09:48:39;;;;;;;10.02;1.80;;;;;;;8.48;59.09;99044.00;5064128;28;20079;-61
2021/12/10 09:51:12;;;;;;;7.15;2.10;;;;;;;8.55;59.11;99043.81;5064673;28;20049;-60
2021/12/10 09:53:45;;;;;;;10.68;2.28;;;;;;;8.60;58.38;99038.50;5055434;28;20056;-63
2021/12/10 09:56:14;;;;;;;6.47;2.22;;;;;;;8.48;59.42;99038.66;5054361;28;20144;-61
2021/12/10 09:58:42;;;;;;;8.05;2.63;;;;;;;8.37;59.96;99041.47;5049558;28;20041;-59
2021/12/10 10:01:15;;;;;;;3.85;1.67;;;;;;;8.19;60.00;99039.91;5059582;28;20100;-60
2021/12/10 10:03:48;;;;;;;5.25;1.80;;;;;;;8.11;60.88;99038.50;5066553;28;20527;-61
2021/12/10 10:06:17;;;;;;;8.05;3.15;;;;;;;8.07;60.60;99036.56;4715364;28;10000032;-60
2021/12/10 10:08:46;;;;;;;5.47;1.95;;;;;;;8.00;60.99;99043.97;5062578;28;20459;-60
2021/12/10 10:11:29;;;;;;;12.85;2.78;;;;;;;7.93;61.43;99051.38;5069547;28;20056;-60
2021/12/10 10:13:58;;;;;;;4.63;2.30;;;;;;;7.94;61.60;99050.31;5061120;28;20671;-60
2021/12/10 10:16:30;;;;;;;4.20;1.88;;;;;;;8.04;60.59;99050.44;5060723;28;20106;-59
2021/12/10 10:18:59;;;;;;;6.65;2.20;;;;;;;8.04;60.64;99037.06;5059933;28;20516;-60
2021/12/10 10:21:30;;;;;;;3.63;1.60;;;;;;;8.20;60.73;99048.75;5059066;28;20114;-61
2021/12/10 10:23:58;;;;;;;8.60;2.38;;;;;;;8.24;60.71;99031.94;5052558;28;20050;-59
2021/12/10 10:26:32;;;;;;;4.65;1.70;;;;;;;8.43;60.19;99041.28;5063913;28;20044;-60
2021/12/10 10:29:00;;;;;;;7.90;1.90;;;;;;;8.48;60.16;99051.25;5060529;28;20071;-61
2021/12/10 10:31:29;;;;;;;3.65;1.80;;;;;;;8.40;59.37;99051.69;5064862;28;20048;-61
2021/12/10 10:33:59;;;;;;;6.10;1.67;;;;;;;8.29;60.60;99063.31;5048249;28;20129;-59
2021/12/10 10:36:32;;;;;;;4.70;1.40;;;;;;;8.14;60.64;99055.91;5055739;28;20044;-58
2021/12/10 10:39:09;;;;;;;6.63;2.05;;;;;;;7.98;61.43;99054.91;5059982;28;20057;-60
2021/12/10 10:41:46;;;;;;;4.00;1.70;;;;;;;7.89;61.71;99058.28;5058630;28;20067;-61
2021/12/10 10:44:15;;;;;;;3.75;1.90;;;;;;;7.81;62.09;99056.84;5059604;28;20052;-60
2021/12/10 10:46:46;;;;;;;4.75;1.65;;;;;;;7.75;62.04;99053.28;5057628;28;20090;-61
2021/12/10 10:49:40;;;;;;;4.90;2.92;;;;;;;7.66;62.71;99052.09;5048644;28;20107;-57
2021/12/10 10:52:18;;;;;;;8.65;1.80;;;;;;;7.59;62.96;99056.00;5052170;28;20060;-59
2021/12/10 10:54:47;;;;;;;5.57;1.90;;;;;;;7.53;62.82;99055.13;5059347;28;20460;-60
2021/12/10 10:57:18;;;;;;;5.47;1.88;;;;;;;7.50;62.78;99058.28;5059947;28;20071;-56
2021/12/10 10:59:49;;;;;;;6.75;2.05;;;;;;;7.50;63.19;99059.09;5059143;28;20126;-71
2021/12/10 11:02:18;;;;;;;5.15;1.92;;;;;;;7.47;63.25;99059.59;5063827;28;20080;-61
2021/12/10 11:04:49;;;;;;;9.00;2.40;;;;;;;7.46;63.05;99065.16;5049461;28;20110;-58
2021/12/10 11:07:21;;;;;;;9.98;2.53;;;;;;;7.44;63.17;99067.28;5052086;28;20061;-60
2021/12/10 11:09:52;;;;;;;7.18;2.38;;;;;;;7.41;63.66;99076.59;5057995;28;20049;-61
2021/12/10 11:12:26;;;;;;;4.25;2.45;;;;;;;7.37;63.72;99064.78;5058027;28;20045;-61
2021/12/10 11:14:58;;;;;;;4.18;2.35;;;;;;;7.37;63.78;99069.31;5053396;28;20059;-57
2021/12/10 11:17:32;;;;;;;6.70;2.03;;;;;;;7.33;63.47;99076.19;5059343;28;20059;-56
2021/12/10 11:20:05;;;;;;;6.97;2.13;;;;;;;7.30;63.92;99082.84;5054727;28;20095;-56
2021/12/10 11:22:34;;;;;;;11.68;3.28;;;;;;;7.29;63.72;99088.44;5055351;28;20075;-55
2021/12/10 11:25:11;;;;;;;3.47;1.80;;;;;;;7.21;63.71;99062.94;5057844;28;20057;-61
2021/12/10 11:27:41;;;;;;;5.72;2.35;;;;;;;7.28;63.81;99084.94;5051137;28;20045;-61
2021/12/10 11:30:14;;;;;;;5.60;2.45;;;;;;;7.30;63.87;99079.34;5048813;28;20047;-58
2021/12/10 11:32:46;;;;;;;5.82;2.40;;;;;;;7.28;63.88;99078.78;5060033;28;20080;-60
2021/12/10 11:35:19;;;;;;;6.47;2.47;;;;;;;7.26;64.09;99070.22;5051760;28;20063;-60
2021/12/10 11:37:50;;;;;;;4.45;1.70;;;;;;;7.28;63.71;99081.47;5046155;28;20052;-60
2021/12/10 11:40:35;;;;;;;4.10;1.45;;;;;;;7.27;63.97;99083.31;5064268;28;20040;-61
2021/12/10 11:43:17;;;;;;;7.35;2.55;;;;;;;7.23;64.55;99084.06;5057985;28;20065;-60
2021/12/10 11:46:04;;;;;;;7.15;1.70;;;;;;;7.25;64.04;99087.28;5057675;28;20052;-56
2021/12/10 11:48:36;;;;;;;6.30;1.95;;;;;;;7.25;64.09;99088.09;5055964;28;20064;-58
2021/12/10 11:51:09;;;;;;;4.63;1.75;;;;;;;7.25;64.43;99081.94;5060008;28;20061;-58
2021/12/10 11:53:42;;;;;;;4.00;1.58;;;;;;;7.25;64.13;99088.09;5056192;28;20417;-61
2021/12/10 11:56:13;;;;;;;6.28;1.95;;;;;;;7.23;64.54;99087.53;5055433;28;20076;-59
2021/12/10 11:58:41;;;;;;;6.90;1.90;;;;;;;7.24;64.13;99093.69;5056667;28;20049;-60
2021/12/10 12:01:17;;;;;;;4.45;1.52;;;;;;;7.23;64.36;99097.41;5060679;28;20056;-59
2021/12/10 12:03:47;;;;;;;6.32;2.70;;;;;;;7.24;64.44;99101.72;5068553;28;20052;-60